createdAt,value
2015-12-21T00:00:04.116Z,2.42
2015-12-21T00:00:16.491Z,2.4
2015-12-21T00:00:28.850Z,2.36
2015-12-21T00:00:41.210Z,2.4
2015-12-21T00:00:53.447Z,2.38
2015-12-21T00:01:06.353Z,2.34
2015-12-21T00:01:18.791Z,2.36
2015-12-21T00:01:31.244Z,2.41
2015-12-21T00:01:43.938Z,2.41
2015-12-21T00:01:56.347Z,2.41
2015-12-21T00:02:08.737Z,2.38
2015-12-21T00:02:21.097Z,2.4
2015-12-21T00:02:33.456Z,2.47
2015-12-21T00:02:45.815Z,2.33
2015-12-21T00:02:58.162Z,2.34
2015-12-21T00:03:10.506Z,2.34
2015-12-21T00:03:22.693Z,2.4
2015-12-21T00:03:35.053Z,2.4
2015-12-21T00:03:47.412Z,2.42
2015-12-21T00:03:59.773Z,2.41
2015-12-21T00:04:12.117Z,2.38
2015-12-21T00:04:23.773Z,2.41
2015-12-21T00:04:36.133Z,2.44
2015-12-21T00:04:48.477Z,2.41
2015-12-21T00:05:00.840Z,2.4
2015-12-21T00:05:13.199Z,2.42
2015-12-21T00:05:25.574Z,2.42
2015-12-21T00:05:37.949Z,2.44
2015-12-21T00:05:50.324Z,2.45
2015-12-21T00:06:02.701Z,2.44
2015-12-21T00:06:15.076Z,2.44
2015-12-21T00:06:27.451Z,2.41
2015-12-21T00:06:39.842Z,2.41
2015-12-21T00:06:52.233Z,2.45
2015-12-21T00:07:04.626Z,2.38
2015-12-21T00:07:17.017Z,2.45
2015-12-21T00:07:29.407Z,2.38
2015-12-21T00:07:41.782Z,2.34
2015-12-21T00:07:54.173Z,2.41
2015-12-21T00:08:06.519Z,2.42
2015-12-21T00:08:18.878Z,2.34
2015-12-21T00:08:31.253Z,2.36
2015-12-21T00:08:43.613Z,2.27
2015-12-21T00:08:55.972Z,2.36
2015-12-21T00:09:08.334Z,2.31
2015-12-21T00:09:20.709Z,2.34
2015-12-21T00:09:33.069Z,2.29
2015-12-21T00:09:45.412Z,2.36
2015-12-21T00:09:57.912Z,2.31
2015-12-21T00:10:10.275Z,2.27
2015-12-21T00:10:22.634Z,2.34
2015-12-21T00:10:34.994Z,2.38
2015-12-21T00:10:47.353Z,2.36
2015-12-21T00:10:59.744Z,2.3
2015-12-21T00:11:12.122Z,2.34
2015-12-21T00:11:24.497Z,2.34
2015-12-21T00:11:36.872Z,2.4
2015-12-21T00:11:49.247Z,2.36
2015-12-21T00:12:01.637Z,2.36
2015-12-21T00:12:14.031Z,2.36
2015-12-21T00:12:26.406Z,2.42
2015-12-21T00:12:38.796Z,2.31
2015-12-21T00:12:51.187Z,2.38
2015-12-21T00:13:03.421Z,2.38
2015-12-21T00:13:15.830Z,2.41
2015-12-21T00:13:28.189Z,2.41
2015-12-21T00:13:40.548Z,2.33
2015-12-21T00:13:52.923Z,2.41
2015-12-21T00:14:05.283Z,2.42
2015-12-21T00:14:17.645Z,2.41
2015-12-21T00:14:30.005Z,2.44
2015-12-21T00:14:42.364Z,2.38
2015-12-21T00:14:54.723Z,2.45
2015-12-21T00:15:07.083Z,2.44
2015-12-21T00:15:19.445Z,2.41
2015-12-21T00:15:31.820Z,2.45
2015-12-21T00:15:44.179Z,2.45
2015-12-21T00:15:56.539Z,2.41
2015-12-21T00:16:08.898Z,2.45
2015-12-21T00:16:21.261Z,2.54
2015-12-21T00:16:33.636Z,2.48
2015-12-21T00:16:46.011Z,2.55
2015-12-21T00:16:58.386Z,2.59
2015-12-21T00:17:10.761Z,2.42
2015-12-21T00:17:23.154Z,2.52
2015-12-21T00:17:35.545Z,2.47
2015-12-21T00:17:47.920Z,2.52
2015-12-21T00:18:00.310Z,2.52
2015-12-21T00:18:12.717Z,2.48
2015-12-21T00:18:25.110Z,2.49
2015-12-21T00:18:37.501Z,2.54
2015-12-21T00:18:49.923Z,2.54
2015-12-21T00:19:02.267Z,2.48
2015-12-21T00:19:14.626Z,2.52
2015-12-21T00:19:26.987Z,2.49
2015-12-21T00:19:39.378Z,2.62
2015-12-21T00:19:51.737Z,2.52
2015-12-21T00:20:04.112Z,2.55
2015-12-21T00:20:16.472Z,2.49
2015-12-21T00:20:28.834Z,2.54
2015-12-21T00:20:41.193Z,2.58
2015-12-21T00:20:53.553Z,2.49
2015-12-21T00:21:05.912Z,2.52
2015-12-21T00:21:17.568Z,2.51
2015-12-21T00:21:29.915Z,2.65
2015-12-21T00:21:42.275Z,2.66
2015-12-21T00:21:54.650Z,2.6
2015-12-21T00:22:07.025Z,2.55
2015-12-21T00:22:19.400Z,2.54
2015-12-21T00:22:31.761Z,2.6
2015-12-21T00:22:44.152Z,2.6
2015-12-21T00:22:56.542Z,2.6
2015-12-21T00:23:08.933Z,2.58
2015-12-21T00:23:21.323Z,2.66
2015-12-21T00:23:33.701Z,2.65
2015-12-21T00:23:46.108Z,2.67
2015-12-21T00:23:58.498Z,2.55
2015-12-21T00:24:10.889Z,2.63
2015-12-21T00:24:23.267Z,2.67
2015-12-21T00:24:35.626Z,2.59
2015-12-21T00:24:47.970Z,2.7
2015-12-21T00:25:00.329Z,2.63
2015-12-21T00:25:12.673Z,2.62
2015-12-21T00:25:25.036Z,2.67
2015-12-21T00:25:37.395Z,2.69
2015-12-21T00:25:49.754Z,2.59
2015-12-21T00:26:02.114Z,2.63
2015-12-21T00:26:14.473Z,2.62
2015-12-21T00:26:26.850Z,2.6
2015-12-21T00:26:39.209Z,2.59
2015-12-21T00:26:51.569Z,2.65
2015-12-21T00:27:03.928Z,2.58
2015-12-21T00:27:16.303Z,2.66
2015-12-21T00:27:27.962Z,2.67
2015-12-21T00:27:40.322Z,2.7
2015-12-21T00:27:52.697Z,2.67
2015-12-21T00:28:05.087Z,2.69
2015-12-21T00:28:17.478Z,2.7
2015-12-21T00:28:29.856Z,2.67
2015-12-21T00:28:42.247Z,2.63
2015-12-21T00:28:54.637Z,2.6
2015-12-21T00:29:07.044Z,2.66
2015-12-21T00:29:19.434Z,2.63
2015-12-21T00:29:31.797Z,2.63
2015-12-21T00:29:44.156Z,2.69
2015-12-21T00:29:56.515Z,2.65
2015-12-21T00:30:08.890Z,2.65
2015-12-21T00:30:21.234Z,2.65
2015-12-21T00:30:33.595Z,2.6
2015-12-21T00:30:45.939Z,2.6
2015-12-21T00:30:58.299Z,2.63
2015-12-21T00:31:10.674Z,2.55
2015-12-21T00:31:23.033Z,2.67
2015-12-21T00:31:35.395Z,2.55
2015-12-21T00:31:47.755Z,2.62
2015-12-21T00:32:00.130Z,2.6
2015-12-21T00:32:12.489Z,2.6
2015-12-21T00:32:24.145Z,2.63
2015-12-21T00:32:36.508Z,2.63
2015-12-21T00:32:48.898Z,2.54
2015-12-21T00:33:01.289Z,2.69
2015-12-21T00:33:13.680Z,2.59
2015-12-21T00:33:26.055Z,2.69
2015-12-21T00:33:38.448Z,2.72
2015-12-21T00:33:50.854Z,2.67
2015-12-21T00:34:03.229Z,2.72
2015-12-21T00:34:15.620Z,2.77
2015-12-21T00:34:28.026Z,2.7
2015-12-21T00:34:40.372Z,2.67
2015-12-21T00:34:52.731Z,2.65
2015-12-21T00:35:05.091Z,2.67
2015-12-21T00:35:17.450Z,2.77
2015-12-21T00:35:29.810Z,2.72
2015-12-21T00:35:42.188Z,2.69
2015-12-21T00:35:54.578Z,2.66
2015-12-21T00:36:06.938Z,2.69
2015-12-21T00:36:19.297Z,2.72
2015-12-21T00:36:31.656Z,2.72
2015-12-21T00:36:44.019Z,2.66
2015-12-21T00:36:56.378Z,2.77
2015-12-21T00:37:08.737Z,2.76
2015-12-21T00:37:21.097Z,2.62
2015-12-21T00:37:33.456Z,2.59
2015-12-21T00:37:45.834Z,2.69
2015-12-21T00:37:58.209Z,2.63
2015-12-21T00:38:10.584Z,2.62
2015-12-21T00:38:22.975Z,2.54
2015-12-21T00:38:35.365Z,2.65
2015-12-21T00:38:47.758Z,2.58
2015-12-21T00:39:00.149Z,2.55
2015-12-21T00:39:12.539Z,2.51
2015-12-21T00:39:24.946Z,2.54
2015-12-21T00:39:37.321Z,2.51
2015-12-21T00:39:49.714Z,2.49
2015-12-21T00:40:02.105Z,2.59
2015-12-21T00:40:14.464Z,2.55
2015-12-21T00:40:26.824Z,2.59
2015-12-21T00:40:39.183Z,2.62
2015-12-21T00:40:51.545Z,2.58
2015-12-21T00:41:03.905Z,2.55
2015-12-21T00:41:16.264Z,2.54
2015-12-21T00:41:28.623Z,2.55
2015-12-21T00:41:40.967Z,2.58
2015-12-21T00:41:53.345Z,2.52
2015-12-21T00:42:05.705Z,2.52
2015-12-21T00:42:18.080Z,2.52
2015-12-21T00:42:30.439Z,2.58
2015-12-21T00:42:42.798Z,2.55
2015-12-21T00:42:55.175Z,2.51
2015-12-21T00:43:07.535Z,2.54
2015-12-21T00:43:19.910Z,2.47
2015-12-21T00:43:32.269Z,2.48
2015-12-21T00:43:44.644Z,2.51
2015-12-21T00:43:57.038Z,2.48
2015-12-21T00:44:09.428Z,2.47
2015-12-21T00:44:21.819Z,2.52
2015-12-21T00:44:34.210Z,2.44
2015-12-21T00:44:46.616Z,2.45
2015-12-21T00:44:59.008Z,2.51
2015-12-21T00:45:11.415Z,2.42
2015-12-21T00:45:23.805Z,2.42
2015-12-21T00:45:36.149Z,2.42
2015-12-21T00:45:48.493Z,2.4
2015-12-21T00:46:00.841Z,2.44
2015-12-21T00:46:13.216Z,2.4
2015-12-21T00:46:25.559Z,2.44
2015-12-21T00:46:37.903Z,2.41
2015-12-21T00:46:50.247Z,2.45
2015-12-21T00:47:02.608Z,2.42
2015-12-21T00:47:14.968Z,2.4
2015-12-21T00:47:27.343Z,2.36
2015-12-21T00:47:39.702Z,2.44
2015-12-21T00:47:52.061Z,2.4
2015-12-21T00:48:04.424Z,2.41
2015-12-21T00:48:16.783Z,2.44
2015-12-21T00:48:29.158Z,2.47
2015-12-21T00:48:41.533Z,2.48
2015-12-21T00:48:53.892Z,2.44
2015-12-21T00:49:06.270Z,2.47
2015-12-21T00:49:18.661Z,2.4
2015-12-21T00:49:31.036Z,2.42
2015-12-21T00:49:43.427Z,2.41
2015-12-21T00:49:55.817Z,2.45
2015-12-21T00:50:08.227Z,2.41
2015-12-21T00:50:19.898Z,2.41
2015-12-21T00:50:32.289Z,2.34
2015-12-21T00:50:44.680Z,2.44
2015-12-21T00:50:57.039Z,2.41
2015-12-21T00:51:09.401Z,2.4
2015-12-21T00:51:21.761Z,2.36
2015-12-21T00:51:34.120Z,2.38
2015-12-21T00:51:46.480Z,2.38
2015-12-21T00:51:58.855Z,2.4
2015-12-21T00:52:11.216Z,2.38
2015-12-21T00:52:22.872Z,2.4
2015-12-21T00:52:35.216Z,2.34
2015-12-21T00:52:47.591Z,2.3
2015-12-21T00:52:59.950Z,2.34
2015-12-21T00:53:12.313Z,2.27
2015-12-21T00:53:24.656Z,2.31
2015-12-21T00:53:37.031Z,2.27
2015-12-21T00:53:49.406Z,2.34
2015-12-21T00:54:01.781Z,2.3
2015-12-21T00:54:14.158Z,2.26
2015-12-21T00:54:26.533Z,2.29
2015-12-21T00:54:38.924Z,2.29
2015-12-21T00:54:51.315Z,2.33
2015-12-21T00:55:03.705Z,2.3
2015-12-21T00:55:16.100Z,2.38
2015-12-21T00:55:28.506Z,2.3
2015-12-21T00:55:40.881Z,2.29
2015-12-21T00:55:53.272Z,2.29
2015-12-21T00:56:05.694Z,2.33
2015-12-21T00:56:18.039Z,2.26
2015-12-21T00:56:30.399Z,2.31
2015-12-21T00:56:42.758Z,2.29
2015-12-21T00:56:55.118Z,2.27
2015-12-21T00:57:07.477Z,2.22
2015-12-21T00:57:19.855Z,2.2
2015-12-21T00:57:32.199Z,2.16
2015-12-21T00:57:44.558Z,2.15
2015-12-21T00:57:56.199Z,2.22
2015-12-21T00:58:08.574Z,2.18
2015-12-21T00:58:20.936Z,2.11
2015-12-21T00:58:33.295Z,2.18
2015-12-21T00:58:45.639Z,2.09
2015-12-21T00:58:57.999Z,2.2
2015-12-21T00:59:10.389Z,2.06
2015-12-21T00:59:22.752Z,2.09
2015-12-21T00:59:35.127Z,2.13
2015-12-21T00:59:47.486Z,2.16
2015-12-21T00:59:59.877Z,2.09
2015-12-21T01:00:12.267Z,2.08
2015-12-21T01:00:24.645Z,2.05
2015-12-21T01:00:36.926Z,2.05
2015-12-21T01:00:49.317Z,2.04
2015-12-21T01:01:01.723Z,2.08
2015-12-21T01:01:14.114Z,2.06
2015-12-21T01:01:26.507Z,2.15
2015-12-21T01:01:38.913Z,2.09
2015-12-21T01:01:51.272Z,1.97
2015-12-21T01:02:03.632Z,2.04
2015-12-21T01:02:15.991Z,2.05
2015-12-21T01:02:28.353Z,2.04
2015-12-21T01:02:40.713Z,1.98
2015-12-21T01:02:53.072Z,2.12
2015-12-21T01:03:05.431Z,2.01
2015-12-21T01:03:17.791Z,2.02
2015-12-21T01:03:30.152Z,1.97
2015-12-21T01:03:42.527Z,2.01
2015-12-21T01:03:54.887Z,2.01
2015-12-21T01:04:07.246Z,1.89
2015-12-21T01:04:19.621Z,1.98
2015-12-21T01:04:31.983Z,1.92
2015-12-21T01:04:44.343Z,1.86
2015-12-21T01:04:56.733Z,1.89
2015-12-21T01:05:09.108Z,1.97
2015-12-21T01:05:21.486Z,1.89
2015-12-21T01:05:33.861Z,1.89
2015-12-21T01:05:46.252Z,1.84
2015-12-21T01:05:58.643Z,1.97
2015-12-21T01:06:11.018Z,1.89
2015-12-21T01:06:23.411Z,1.9
2015-12-21T01:06:35.646Z,1.89
2015-12-21T01:06:48.052Z,1.9
2015-12-21T01:06:59.724Z,1.84
2015-12-21T01:07:12.083Z,1.87
2015-12-21T01:07:24.430Z,1.92
2015-12-21T01:07:36.789Z,1.86
2015-12-21T01:07:49.149Z,1.84
2015-12-21T01:08:01.524Z,1.87
2015-12-21T01:08:13.899Z,1.83
2015-12-21T01:08:26.261Z,1.86
2015-12-21T01:08:38.620Z,1.87
2015-12-21T01:08:50.980Z,1.89
2015-12-21T01:09:03.339Z,1.75
2015-12-21T01:09:15.698Z,1.83
2015-12-21T01:09:28.044Z,1.92
2015-12-21T01:09:40.404Z,1.89
2015-12-21T01:09:52.779Z,1.83
2015-12-21T01:10:05.154Z,1.93
2015-12-21T01:10:17.529Z,1.84
2015-12-21T01:10:29.907Z,1.86
2015-12-21T01:10:42.297Z,1.86
2015-12-21T01:10:54.657Z,1.84
2015-12-21T01:11:07.047Z,1.84
2015-12-21T01:11:19.438Z,1.87
2015-12-21T01:11:31.847Z,1.9
2015-12-21T01:11:44.191Z,1.79
2015-12-21T01:11:56.550Z,1.92
2015-12-21T01:12:08.910Z,1.89
2015-12-21T01:12:21.269Z,1.87
2015-12-21T01:12:33.630Z,1.83
2015-12-21T01:12:45.833Z,1.87
2015-12-21T01:12:58.177Z,1.87
2015-12-21T01:13:10.552Z,1.79
2015-12-21T01:13:22.896Z,1.83
2015-12-21T01:13:35.274Z,1.86
2015-12-21T01:13:47.633Z,1.79
2015-12-21T01:14:00.008Z,1.72
2015-12-21T01:14:12.368Z,1.75
2015-12-21T01:14:24.727Z,1.86
2015-12-21T01:14:37.105Z,1.87
2015-12-21T01:14:49.480Z,1.83
2015-12-21T01:15:01.855Z,1.83
2015-12-21T01:15:14.214Z,1.89
2015-12-21T01:15:26.589Z,1.87
2015-12-21T01:15:38.966Z,1.84
2015-12-21T01:15:51.357Z,1.83
2015-12-21T01:16:03.748Z,1.79
2015-12-21T01:16:16.138Z,1.84
2015-12-21T01:16:28.529Z,1.83
2015-12-21T01:16:40.908Z,1.9
2015-12-21T01:16:53.314Z,1.78
2015-12-21T01:17:05.674Z,1.74
2015-12-21T01:17:18.033Z,1.75
2015-12-21T01:17:30.392Z,1.76
2015-12-21T01:17:42.754Z,1.79
2015-12-21T01:17:55.113Z,1.76
2015-12-21T01:18:07.488Z,1.84
2015-12-21T01:18:19.847Z,1.76
2015-12-21T01:18:32.191Z,1.86
2015-12-21T01:18:44.554Z,1.86
2015-12-21T01:18:56.929Z,1.86
2015-12-21T01:19:09.288Z,1.86
2015-12-21T01:19:21.647Z,1.86
2015-12-21T01:19:33.288Z,1.84
2015-12-21T01:19:45.649Z,1.82
2015-12-21T01:19:58.024Z,1.83
2015-12-21T01:20:10.415Z,1.9
2015-12-21T01:20:22.774Z,1.87
2015-12-21T01:20:35.149Z,1.87
2015-12-21T01:20:47.527Z,1.87
2015-12-21T01:20:59.918Z,1.87
2015-12-21T01:21:12.309Z,1.84
2015-12-21T01:21:24.684Z,1.9
2015-12-21T01:21:37.027Z,1.82
2015-12-21T01:21:49.375Z,1.84
2015-12-21T01:22:30.453Z,1.75
2015-12-21T01:22:42.813Z,1.87
2015-12-21T01:22:55.174Z,1.75
2015-12-21T01:23:07.565Z,1.76
2015-12-21T01:23:19.924Z,1.75
2015-12-21T01:23:32.268Z,1.74
2015-12-21T01:23:44.627Z,1.79
2015-12-21T01:23:56.989Z,1.76
2015-12-21T01:24:09.349Z,1.84
2015-12-21T01:24:21.724Z,1.74
2015-12-21T01:24:34.083Z,1.82
2015-12-21T01:24:46.458Z,1.76
2015-12-21T01:24:58.836Z,1.74
2015-12-21T01:25:11.211Z,1.72
2015-12-21T01:25:23.586Z,1.76
2015-12-21T01:25:35.977Z,1.66
2015-12-21T01:25:48.352Z,1.75
2015-12-21T01:26:00.026Z,1.74
2015-12-21T01:26:12.416Z,1.71
2015-12-21T01:26:24.807Z,1.78
2015-12-21T01:26:37.213Z,1.71
2015-12-21T01:26:49.573Z,1.68
2015-12-21T01:27:01.935Z,1.68
2015-12-21T01:27:14.294Z,1.68
2015-12-21T01:27:26.638Z,1.71
2015-12-21T01:27:38.997Z,1.6
2015-12-21T01:27:51.341Z,1.65
2015-12-21T01:28:03.812Z,1.64
2015-12-21T01:28:16.171Z,1.56
2015-12-21T01:28:28.531Z,1.54
2015-12-21T01:28:40.906Z,1.61
2015-12-21T01:28:53.265Z,1.65
2015-12-21T01:29:05.628Z,1.57
2015-12-21T01:29:17.988Z,1.61
2015-12-21T01:29:30.347Z,1.66
2015-12-21T01:29:42.722Z,1.6
2015-12-21T01:29:55.082Z,1.61
2015-12-21T01:30:07.552Z,1.65
2015-12-21T01:30:19.927Z,1.6
2015-12-21T01:30:32.287Z,1.6
2015-12-21T01:30:44.677Z,1.61
2015-12-21T01:30:57.052Z,1.66
2015-12-21T01:31:09.446Z,1.54
2015-12-21T01:31:21.837Z,1.57
2015-12-21T01:31:34.196Z,1.56
2015-12-21T01:31:46.555Z,1.57
2015-12-21T01:31:58.915Z,1.57
2015-12-21T01:32:11.277Z,1.65
2015-12-21T01:32:23.621Z,1.58
2015-12-21T01:32:35.980Z,1.61
2015-12-21T01:32:48.340Z,1.56
2015-12-21T01:33:00.699Z,1.58
2015-12-21T01:33:13.061Z,1.65
2015-12-21T01:33:25.421Z,1.6
2015-12-21T01:33:37.780Z,1.66
2015-12-21T01:33:50.139Z,1.56
2015-12-21T01:34:02.483Z,1.57
2015-12-21T01:34:14.861Z,1.56
2015-12-21T01:34:27.252Z,1.53
2015-12-21T01:34:39.611Z,1.57
2015-12-21T01:34:51.986Z,1.56
2015-12-21T01:35:03.627Z,1.64
2015-12-21T01:35:16.019Z,1.65
2015-12-21T01:35:28.394Z,1.58
2015-12-21T01:35:40.785Z,1.53
2015-12-21T01:35:53.176Z,1.5
2015-12-21T01:36:05.566Z,1.47
2015-12-21T01:36:17.960Z,1.51
2015-12-21T01:36:30.335Z,1.46
2015-12-21T01:36:42.741Z,1.47
2015-12-21T01:36:55.101Z,1.48
2015-12-21T01:37:07.476Z,1.5
2015-12-21T01:37:19.837Z,1.47
2015-12-21T01:37:32.181Z,1.48
2015-12-21T01:37:44.556Z,1.46
2015-12-21T01:37:56.931Z,1.48
2015-12-21T01:38:09.274Z,1.46
2015-12-21T01:38:21.621Z,1.47
2015-12-21T01:38:33.981Z,1.46
2015-12-21T01:38:46.356Z,1.51
2015-12-21T01:38:58.715Z,1.48
2015-12-21T01:39:11.074Z,1.51
2015-12-21T01:39:23.438Z,1.48
2015-12-21T01:39:35.797Z,1.47
2015-12-21T01:39:48.172Z,1.5
2015-12-21T01:40:00.547Z,1.46
2015-12-21T01:40:12.906Z,1.5
2015-12-21T01:40:25.283Z,1.5
2015-12-21T01:40:37.658Z,1.51
2015-12-21T01:40:50.033Z,1.48
2015-12-21T01:41:02.440Z,1.51
2015-12-21T01:41:14.830Z,1.54
2015-12-21T01:41:27.239Z,1.53
2015-12-21T01:41:39.629Z,1.47
2015-12-21T01:41:52.051Z,1.47
2015-12-21T01:42:04.395Z,1.53
2015-12-21T01:42:16.754Z,1.5
2015-12-21T01:42:29.101Z,1.51
2015-12-21T01:42:41.460Z,1.5
2015-12-21T01:42:53.820Z,1.46
2015-12-21T01:43:06.195Z,1.46
2015-12-21T01:43:18.538Z,1.48
2015-12-21T01:43:30.901Z,1.44
2015-12-21T01:43:43.260Z,1.46
2015-12-21T01:43:55.635Z,1.54
2015-12-21T01:44:07.995Z,1.48
2015-12-21T01:44:20.356Z,1.54
2015-12-21T01:44:32.700Z,1.6
2015-12-21T01:44:45.059Z,1.5
2015-12-21T01:44:57.434Z,1.53
2015-12-21T01:45:09.809Z,1.56
2015-12-21T01:45:22.187Z,1.46
2015-12-21T01:45:34.562Z,1.47
2015-12-21T01:45:46.937Z,1.57
2015-12-21T01:45:59.328Z,1.57
2015-12-21T01:46:11.718Z,1.51
2015-12-21T01:46:24.112Z,1.46
2015-12-21T01:46:36.487Z,1.51
2015-12-21T01:46:48.893Z,1.5
2015-12-21T01:47:01.299Z,1.47
2015-12-21T01:47:13.659Z,1.46
2015-12-21T01:47:26.020Z,1.5
2015-12-21T01:47:38.380Z,1.48
2015-12-21T01:47:50.739Z,1.5
2015-12-21T01:48:03.098Z,1.51
2015-12-21T01:48:15.458Z,1.47
2015-12-21T01:48:27.118Z,1.5
2015-12-21T01:48:39.477Z,1.5
2015-12-21T01:48:51.837Z,1.46
2015-12-21T01:49:04.196Z,1.5
2015-12-21T01:49:16.555Z,1.51
2015-12-21T01:49:28.917Z,1.5
2015-12-21T01:49:41.276Z,1.47
2015-12-21T01:49:53.636Z,1.5
2015-12-21T01:50:06.011Z,1.42
2015-12-21T01:50:18.386Z,1.47
2015-12-21T01:50:30.748Z,1.48
2015-12-21T01:50:43.139Z,1.51
2015-12-21T01:50:55.529Z,1.47
2015-12-21T01:51:07.920Z,1.46
2015-12-21T01:51:20.310Z,1.42
2015-12-21T01:51:32.704Z,1.42
2015-12-21T01:51:45.079Z,1.47
2015-12-21T01:51:57.485Z,1.5
2015-12-21T01:52:09.845Z,1.51
2015-12-21T01:52:22.204Z,1.5
2015-12-21T01:52:34.566Z,1.51
2015-12-21T01:52:46.910Z,1.47
2015-12-21T01:52:59.270Z,1.51
2015-12-21T01:53:11.629Z,1.5
2015-12-21T01:53:23.973Z,1.48
2015-12-21T01:53:36.319Z,1.47
2015-12-21T01:53:48.773Z,1.48
2015-12-21T01:54:01.132Z,1.56
2015-12-21T01:54:13.491Z,1.54
2015-12-21T01:54:25.866Z,1.47
2015-12-21T01:54:38.228Z,1.46
2015-12-21T01:54:50.603Z,1.51
2015-12-21T01:55:02.993Z,1.47
2015-12-21T01:55:15.384Z,1.46
2015-12-21T01:55:27.775Z,1.47
2015-12-21T01:55:40.153Z,1.48
2015-12-21T01:55:52.559Z,1.5
2015-12-21T01:56:04.949Z,1.48
2015-12-21T01:56:17.340Z,1.54
2015-12-21T01:56:29.715Z,1.53
2015-12-21T01:56:42.077Z,1.48
2015-12-21T01:56:54.437Z,1.42
2015-12-21T01:57:06.796Z,1.44
2015-12-21T01:57:19.156Z,1.5
2015-12-21T01:57:31.515Z,1.48
2015-12-21T01:57:43.877Z,1.47
2015-12-21T01:57:56.237Z,1.48
2015-12-21T01:58:08.596Z,1.47
2015-12-21T01:58:20.955Z,1.53
2015-12-21T01:58:33.330Z,1.5
2015-12-21T01:58:45.677Z,1.44
2015-12-21T01:58:58.037Z,1.46
2015-12-21T01:59:10.396Z,1.48
2015-12-21T01:59:22.755Z,1.47
2015-12-21T01:59:35.130Z,1.48
2015-12-21T01:59:47.507Z,1.48
2015-12-21T01:59:59.882Z,1.54
2015-12-21T02:00:12.242Z,1.5
2015-12-21T02:00:24.617Z,1.5
2015-12-21T02:00:37.054Z,1.53
2015-12-21T02:00:49.479Z,1.54
2015-12-21T02:01:01.854Z,1.5
2015-12-21T02:01:14.245Z,1.46
2015-12-21T02:01:26.635Z,1.46
2015-12-21T02:01:38.979Z,1.47
2015-12-21T02:01:51.340Z,1.54
2015-12-21T02:02:03.684Z,1.61
2015-12-21T02:02:16.044Z,1.47
2015-12-21T02:02:28.419Z,1.48
2015-12-21T02:02:40.778Z,1.5
2015-12-21T02:02:53.140Z,1.51
2015-12-21T02:03:05.484Z,1.51
2015-12-21T02:03:17.859Z,1.51
2015-12-21T02:03:30.281Z,1.53
2015-12-21T02:03:42.640Z,1.56
2015-12-21T02:03:54.987Z,1.57
2015-12-21T02:04:07.346Z,1.57
2015-12-21T02:04:19.706Z,1.53
2015-12-21T02:04:32.081Z,1.61
2015-12-21T02:04:44.456Z,1.58
2015-12-21T02:04:56.834Z,1.57
2015-12-21T02:05:09.209Z,1.65
2015-12-21T02:05:21.599Z,1.53
2015-12-21T02:05:33.974Z,1.57
2015-12-21T02:05:46.381Z,1.54
2015-12-21T02:05:58.759Z,1.6
2015-12-21T02:06:11.149Z,1.64
2015-12-21T02:06:23.524Z,1.51
2015-12-21T02:06:35.915Z,1.51
2015-12-21T02:06:48.337Z,1.48
2015-12-21T02:07:00.698Z,1.48
2015-12-21T02:07:13.058Z,1.47
2015-12-21T02:07:25.401Z,1.47
2015-12-21T02:07:37.761Z,1.47
2015-12-21T02:07:49.401Z,1.54
2015-12-21T02:08:01.764Z,1.5
2015-12-21T02:08:14.123Z,1.47
2015-12-21T02:08:26.467Z,1.51
2015-12-21T02:08:38.826Z,1.53
2015-12-21T02:08:51.201Z,1.48
2015-12-21T02:09:03.564Z,1.57
2015-12-21T02:09:15.923Z,1.56
2015-12-21T02:09:28.282Z,1.56
2015-12-21T02:09:40.642Z,1.53
2015-12-21T02:09:53.048Z,1.57
2015-12-21T02:10:05.426Z,1.51
2015-12-21T02:10:17.801Z,1.57
2015-12-21T02:10:30.176Z,1.57
2015-12-21T02:10:42.551Z,1.53
2015-12-21T02:10:54.942Z,1.6
2015-12-21T02:11:07.334Z,1.58
2015-12-21T02:11:19.725Z,1.46
2015-12-21T02:11:32.100Z,1.53
2015-12-21T02:11:44.490Z,1.57
2015-12-21T02:11:56.881Z,1.54
2015-12-21T02:12:09.275Z,1.53
2015-12-21T02:12:21.665Z,1.54
2015-12-21T02:12:34.025Z,1.6
2015-12-21T02:12:46.384Z,1.56
2015-12-21T02:12:58.743Z,1.51
2015-12-21T02:13:11.106Z,1.58
2015-12-21T02:13:23.465Z,1.6
2015-12-21T02:13:35.825Z,1.58
2015-12-21T02:13:48.184Z,1.57
2015-12-21T02:14:00.543Z,1.64
2015-12-21T02:14:12.906Z,1.57
2015-12-21T02:14:25.265Z,1.61
2015-12-21T02:14:37.624Z,1.64
2015-12-21T02:14:49.968Z,1.57
2015-12-21T02:15:02.328Z,1.6
2015-12-21T02:15:14.690Z,1.56
2015-12-21T02:15:27.081Z,1.66
2015-12-21T02:15:39.456Z,1.57
2015-12-21T02:15:51.831Z,1.6
2015-12-21T02:16:04.190Z,1.61
2015-12-21T02:16:16.583Z,1.54
2015-12-21T02:16:28.973Z,1.61
2015-12-21T02:16:41.364Z,1.48
2015-12-21T02:16:53.754Z,1.56
2015-12-21T02:17:06.145Z,1.5
2015-12-21T02:17:18.539Z,1.5
2015-12-21T02:17:30.929Z,1.5
2015-12-21T02:17:43.336Z,1.5
2015-12-21T02:17:55.695Z,1.47
2015-12-21T02:18:08.054Z,1.47
2015-12-21T02:18:20.432Z,1.39
2015-12-21T02:18:32.776Z,1.44
2015-12-21T02:18:45.135Z,1.38
2015-12-21T02:18:57.495Z,1.44
2015-12-21T02:19:09.854Z,1.38
2015-12-21T02:19:22.217Z,1.47
2015-12-21T02:19:34.576Z,1.5
2015-12-21T02:19:46.967Z,1.4
2015-12-21T02:19:59.326Z,1.33
2015-12-21T02:20:11.685Z,1.39
2015-12-21T02:20:24.048Z,1.36
2015-12-21T02:20:36.235Z,1.47
2015-12-21T02:20:48.610Z,1.44
2015-12-21T02:21:00.985Z,1.36
2015-12-21T02:21:13.345Z,1.35
2015-12-21T02:21:25.722Z,1.35
2015-12-21T02:21:38.112Z,1.33
2015-12-21T02:21:50.487Z,1.38
2015-12-21T02:22:02.878Z,1.33
2015-12-21T02:22:15.268Z,1.38
2015-12-21T02:22:27.646Z,1.32
2015-12-21T02:22:40.053Z,1.3
2015-12-21T02:22:52.412Z,1.3
2015-12-21T02:23:04.771Z,1.29
2015-12-21T02:23:17.115Z,1.35
2015-12-21T02:23:29.477Z,1.35
2015-12-21T02:23:41.836Z,1.38
2015-12-21T02:23:54.195Z,1.29
2015-12-21T02:24:06.555Z,1.29
2015-12-21T02:24:18.901Z,1.33
2015-12-21T02:24:31.261Z,1.28
2015-12-21T02:24:43.636Z,1.3
2015-12-21T02:24:55.980Z,1.28
2015-12-21T02:25:08.339Z,1.3
2015-12-21T02:25:20.701Z,1.3
2015-12-21T02:25:33.061Z,1.32
2015-12-21T02:25:45.436Z,1.28
2015-12-21T02:25:57.811Z,1.26
2015-12-21T02:26:10.170Z,1.24
2015-12-21T02:26:22.563Z,1.26
2015-12-21T02:26:34.938Z,1.26
2015-12-21T02:26:47.328Z,1.15
2015-12-21T02:26:59.719Z,1.21
2015-12-21T02:27:12.110Z,1.21
2015-12-21T02:27:24.503Z,1.08
2015-12-21T02:27:36.909Z,1.07
2015-12-21T02:27:49.284Z,1.11
2015-12-21T02:28:01.675Z,1.04
2015-12-21T02:28:13.363Z,1.1
2015-12-21T02:28:25.709Z,1.07
2015-12-21T02:28:38.069Z,1.07
2015-12-21T02:28:50.412Z,1.11
2015-12-21T02:29:02.772Z,1.11
2015-12-21T02:29:15.131Z,1.14
2015-12-21T02:29:27.509Z,1.08
2015-12-21T02:29:39.869Z,1.08
2015-12-21T02:29:52.228Z,1.08
2015-12-21T02:30:04.587Z,1.04
2015-12-21T02:30:16.962Z,1.04
2015-12-21T02:30:29.308Z,1.03
2015-12-21T02:30:41.667Z,1.04
2015-12-21T02:30:54.027Z,1.03
2015-12-21T02:31:06.386Z,1.07
2015-12-21T02:31:18.761Z,1.07
2015-12-21T02:31:31.140Z,0.97
2015-12-21T02:31:43.515Z,1.1
2015-12-21T02:31:55.890Z,1.02
2015-12-21T02:32:08.265Z,1.02
2015-12-21T02:32:20.656Z,0.94
2015-12-21T02:32:33.048Z,0.96
2015-12-21T02:32:45.439Z,0.99
2015-12-21T02:32:57.830Z,1
2015-12-21T02:33:10.220Z,0.92
2015-12-21T02:33:22.611Z,0.99
2015-12-21T02:33:34.989Z,0.96
2015-12-21T02:33:47.333Z,1.02
2015-12-21T02:33:59.692Z,1.02
2015-12-21T02:34:11.348Z,1
2015-12-21T02:34:23.692Z,1.02
2015-12-21T02:34:36.054Z,1.07
2015-12-21T02:34:48.414Z,0.99
2015-12-21T02:35:00.773Z,0.99
2015-12-21T02:35:13.148Z,1
2015-12-21T02:35:25.508Z,1.04
2015-12-21T02:35:37.869Z,0.99
2015-12-21T02:35:50.228Z,1.04
2015-12-21T02:36:02.588Z,1.04
2015-12-21T02:36:14.963Z,1.1
2015-12-21T02:36:27.322Z,1.15
2015-12-21T02:36:39.700Z,1.14
2015-12-21T02:36:52.075Z,1.14
2015-12-21T02:37:04.434Z,1.12
2015-12-21T02:37:16.809Z,1.07
2015-12-21T02:37:29.200Z,1.17
2015-12-21T02:37:40.875Z,1.07
2015-12-21T02:37:53.266Z,1.17
2015-12-21T02:38:05.656Z,1.18
2015-12-21T02:38:18.047Z,1.18
2015-12-21T02:38:30.391Z,1.18
2015-12-21T02:38:42.752Z,1.2
2015-12-21T02:38:55.111Z,1.26
2015-12-21T02:39:07.471Z,1.24
2015-12-21T02:39:19.127Z,1.2
2015-12-21T02:39:31.486Z,1.24
2015-12-21T02:39:43.850Z,1.28
2015-12-21T02:39:56.209Z,1.2
2015-12-21T02:40:08.568Z,1.32
2015-12-21T02:40:20.912Z,1.26
2015-12-21T02:40:33.272Z,1.24
2015-12-21T02:40:45.633Z,1.28
2015-12-21T02:40:57.977Z,1.26
2015-12-21T02:41:10.336Z,1.33
2015-12-21T02:41:22.711Z,1.3
2015-12-21T02:41:35.086Z,1.29
2015-12-21T02:41:47.464Z,1.35
2015-12-21T02:41:59.823Z,1.33
2015-12-21T02:42:12.198Z,1.29
2015-12-21T02:42:24.589Z,1.3
2015-12-21T02:42:36.652Z,1.28
2015-12-21T02:42:49.045Z,1.3
2015-12-21T02:43:01.420Z,1.29
2015-12-21T02:43:13.826Z,1.24
2015-12-21T02:43:26.217Z,1.29
2015-12-21T02:43:38.608Z,1.29
2015-12-21T02:43:50.969Z,1.24
2015-12-21T02:44:03.313Z,1.32
2015-12-21T02:44:15.672Z,1.29
2015-12-21T02:44:28.032Z,1.33
2015-12-21T02:44:39.672Z,1.32
2015-12-21T02:44:52.035Z,1.32
2015-12-21T02:45:04.394Z,1.29
2015-12-21T02:45:16.769Z,1.32
2015-12-21T02:45:28.425Z,1.29
2015-12-21T02:45:40.800Z,1.32